KSTP/STP METAR and TAF weather

Enter ICAO airport designator
Station Type Date Time Source
KSTP METAR 2020/11/27 13:53 UTC NOAA

KSTP 271353Z 27006KT 10SM CLR M02/M07 A3012 RMK AO2 SLP206 T10171072


Station Type Date Time Source
KSTP Decoded METAR 2020/11/27 13:53 UTC NOAA

DOWNTOWN HOLMAN FIELD, MN, United States (KSTP) 44-56N 093-03W 219M
Nov 27, 2020 - 08:53 AM EST / 2020.11.27 1353 UTC
Wind: from the W (270 degrees) at 7 MPH (6 KT):0
Visibility: 10 mile(s):0
Sky conditions: clear
Temperature: 28.9 F (-1.7 C)
Windchill: 21 F (-6 C):1
Dew Point: 19.0 F (-7.2 C)
Relative Humidity: 66%
Pressure (altimeter): 30.12 in. Hg (1019 hPa)
ob: KSTP 271353Z 27006KT 10SM CLR M02/M07 A3012 RMK AO2 SLP206 T10171072
cycle: 14

Station Type Date Time Source
KSTP TAF 2018/02/05 20:57 UTC NOAA

TAF
AMD KSTP 051957Z 0520/0618 25007KT P6SM VCSH BKN020 OVC050
TEMPO 0520/0522 SCT020
FM052200 26006KT P6SM FEW020 BKN110
FM060100 31006KT P6SM FEW100
AMD NOT SKED

Example: see airport list